aviador You're here:

KSPW Decoded Metar

SPENCER in IA, USA
Report Time2017-07-22 23:53:00
UTC Time2017-07-23 00:52:00
Flight Rules vfr VFR
Wind320° at 08 kt
W.Decomp.*RWY 30: 7.7 kt HW 2.1 kt RCW
RWY 36: 5.7 kt HW 5.7 kt LCW
W.Rank320° ranks 10
Current wind is below 320° avg. (9.8)
Visibility9999 m
Phenomena:N/A
Clouds:N/A
Expected CloudBase > 3,600 ft AGL from Temp-Dew spread
CeilingNone
Temp29°C (ISA +17)
Dew Point20°C (58% RH)
Heat Index30.7°C
QNH1012 hPa
Density Alt3,573 ft
Elevation1,322 ft
Report Wrong Elevation
Raw Report
KSPW 222353Z AUTO 32008KT 10SM CLR 29/20 A2989 RMK AO2 SLP110
T02940200 10322 20294 58002 $=

Extra information for KSPW:More info

Metar Taf Metar & Taf Last 4 Metars F.Rules Stats Wind Profile Meteogram Temp Stats Airport Information Weather charts Add Link Nearby VenuesMetar ALERT Operation Metar Decoded Social comments

AIRNAV info for KSPW